createdAt,value
2023-04-07T00:02:01.079Z,19.30
2023-04-07T00:04:29.083Z,19.02
2023-04-07T00:06:58.347Z,20.10
2023-04-07T00:09:25.999Z,20.48
2023-04-07T00:11:53.607Z,18.83
2023-04-07T00:14:21.217Z,19.52
2023-04-07T00:16:48.834Z,20.33
2023-04-07T00:19:16.758Z,19.38
2023-04-07T00:21:44.423Z,19.23
2023-04-07T00:24:16.392Z,20.52
2023-04-07T00:26:51.740Z,20.50
2023-04-07T00:29:19.452Z,20.35
2023-04-07T00:31:47.117Z,20.40
2023-04-07T00:34:14.793Z,20.00
2023-04-07T00:36:42.594Z,19.42
2023-04-07T00:39:10.294Z,20.33
2023-04-07T00:41:39.460Z,20.35
2023-04-07T00:44:07.112Z,20.08
2023-04-07T00:46:34.861Z,20.27
2023-04-07T00:49:02.626Z,20.10
2023-04-07T00:51:31.492Z,20.23
2023-04-07T00:53:59.246Z,21.60
2023-04-07T00:56:26.966Z,22.55
2023-04-07T00:58:56.003Z,20.20
2023-04-07T01:01:26.965Z,20.92
2023-04-07T01:03:59.704Z,22.60
2023-04-07T01:06:31.927Z,21.58
2023-04-07T01:09:04.377Z,21.65
2023-04-07T01:11:36.394Z,22.13
2023-04-07T01:14:05.803Z,22.23
2023-04-07T01:16:36.993Z,22.65
2023-04-07T01:19:10.445Z,21.83
2023-04-07T01:21:38.999Z,22.98
2023-04-07T01:24:40.869Z,22.60
2023-04-07T01:27:18.429Z,20.80
2023-04-07T01:29:50.495Z,22.80
2023-04-07T01:32:20.396Z,22.30
2023-04-07T01:34:49.183Z,23.35
2023-04-07T01:37:17.614Z,23.35
2023-04-07T01:39:45.566Z,22.67
2023-04-07T01:42:13.688Z,23.92
2023-04-07T01:44:41.930Z,23.25
2023-04-07T01:47:11.358Z,24.13
2023-04-07T01:49:39.354Z,23.90
2023-04-07T01:52:07.357Z,24.27
2023-04-07T01:54:35.811Z,25.10
2023-04-07T01:57:03.471Z,24.13
2023-04-07T01:59:31.316Z,27.25
2023-04-07T02:01:59.237Z,25.45
2023-04-07T02:04:34.128Z,25.02
2023-04-07T02:07:04.454Z,25.48
2023-04-07T02:09:33.530Z,26.10
2023-04-07T02:12:01.892Z,25.83
2023-04-07T02:14:30.068Z,25.98
2023-04-07T02:16:58.406Z,24.88
2023-04-07T02:19:27.428Z,24.50
2023-04-07T02:21:56.711Z,24.40
2023-04-07T02:24:24.411Z,26.08
2023-04-07T02:26:52.131Z,25.80
2023-04-07T02:29:19.849Z,26.02
2023-04-07T02:31:47.577Z,25.77
2023-04-07T02:34:15.591Z,26.80
2023-04-07T02:36:43.350Z,26.20
2023-04-07T02:39:12.609Z,25.77
2023-04-07T02:41:40.656Z,27.90
2023-04-07T02:44:08.303Z,27.38
2023-04-07T02:46:36.073Z,26.08
2023-04-07T02:49:03.870Z,27.67
2023-04-07T02:51:31.894Z,32.03
2023-04-07T02:53:59.640Z,28.25
2023-04-07T02:56:28.844Z,27.23
2023-04-07T02:58:56.477Z,32.92
2023-04-07T03:01:24.112Z,28.35
2023-04-07T03:03:52.099Z,30.25
2023-04-07T03:06:20.106Z,28.58
2023-04-07T03:08:47.761Z,27.17
2023-04-07T03:11:15.568Z,32.60
2023-04-07T03:13:44.608Z,32.30
2023-04-07T03:16:12.256Z,30.75
2023-04-07T03:18:39.983Z,27.45
2023-04-07T03:21:07.698Z,26.50
2023-04-07T03:23:35.532Z,28.67
2023-04-07T03:26:03.737Z,27.95
2023-04-07T03:28:31.394Z,31.27
2023-04-07T03:31:00.498Z,30.52
2023-04-07T03:33:28.209Z,27.08
2023-04-07T03:35:55.893Z,29.83
2023-04-07T03:38:23.674Z,29.15
2023-04-07T03:40:51.388Z,27.27
2023-04-07T03:43:19.277Z,30.23
2023-04-07T03:45:47.989Z,28.60
2023-04-07T03:48:17.146Z,27.27
2023-04-07T03:50:44.796Z,28.10
2023-04-07T03:53:13.988Z,27.17
2023-04-07T03:55:41.795Z,29.65
2023-04-07T03:58:09.541Z,26.95
2023-04-07T04:00:37.242Z,27.48
2023-04-07T04:03:05.442Z,26.73
2023-04-07T04:05:34.518Z,31.50
2023-04-07T04:08:02.203Z,27.70
2023-04-07T04:10:29.963Z,27.70
2023-04-07T04:13:00.641Z,26.23
2023-04-07T04:15:28.333Z,25.63
2023-04-07T04:17:56.032Z,27.55
2023-04-07T04:20:23.698Z,28.35
2023-04-07T04:22:52.771Z,34.25
2023-04-07T04:25:20.886Z,28.05
2023-04-07T04:27:48.829Z,27.77
2023-04-07T04:30:16.633Z,26.97
2023-04-07T04:32:44.688Z,30.95
2023-04-07T04:35:12.504Z,27.58
2023-04-07T04:37:40.177Z,31.08
2023-04-07T04:40:11.644Z,28.58
2023-04-07T04:42:39.388Z,27.23
2023-04-07T04:45:08.163Z,26.75
2023-04-07T04:47:35.888Z,27.48
2023-04-07T04:50:03.676Z,26.20
2023-04-07T04:52:31.584Z,28.30
2023-04-07T04:54:59.488Z,26.67
2023-04-07T04:57:28.514Z,24.67
2023-04-07T04:59:56.199Z,25.30
2023-04-07T05:02:24.004Z,24.52
2023-04-07T05:04:51.863Z,24.33
2023-04-07T05:07:19.592Z,25.50
2023-04-07T05:09:47.677Z,25.50
2023-04-07T05:12:15.709Z,25.08
2023-04-07T05:14:44.828Z,27.55
2023-04-07T05:17:12.536Z,23.52
2023-04-07T05:19:40.430Z,22.73
2023-04-07T05:22:08.123Z,23.50
2023-04-07T05:24:35.914Z,21.63
2023-04-07T05:27:03.628Z,23.02
2023-04-07T05:29:31.576Z,22.88
2023-04-07T05:32:01.572Z,22.45
2023-04-07T05:34:29.342Z,21.30
2023-04-07T05:36:57.193Z,21.40
2023-04-07T05:39:25.129Z,20.20
2023-04-07T05:41:52.993Z,20.38
2023-04-07T05:44:20.632Z,20.02
2023-04-07T05:46:48.323Z,21.50
2023-04-07T05:49:20.036Z,19.58
2023-04-07T05:51:49.258Z,21.10
2023-04-07T05:54:17.134Z,19.88
2023-04-07T05:56:44.862Z,19.90
2023-04-07T05:59:12.496Z,19.33
2023-04-07T06:01:40.333Z,19.40
2023-04-07T06:04:08.171Z,18.60
2023-04-07T06:06:38.178Z,19.65
2023-04-07T06:09:07.035Z,19.80
2023-04-07T06:11:35.891Z,18.77
2023-04-07T06:14:03.892Z,18.88
2023-04-07T06:16:31.554Z,19.30
2023-04-07T06:18:59.283Z,19.25
2023-04-07T06:21:27.424Z,18.15
2023-04-07T06:23:56.556Z,18.75
2023-04-07T06:26:24.314Z,18.25
2023-04-07T06:28:52.000Z,20.00
2023-04-07T06:31:19.881Z,20.87
2023-04-07T06:33:47.977Z,19.88
2023-04-07T06:36:16.039Z,20.20
2023-04-07T06:38:43.753Z,19.05
2023-04-07T06:41:16.901Z,19.92
2023-04-07T06:43:45.045Z,19.48
2023-04-07T06:46:12.790Z,19.17
2023-04-07T06:48:40.580Z,20.15
2023-04-07T06:51:08.234Z,19.50
2023-04-07T06:53:35.947Z,18.77
2023-04-07T06:56:07.326Z,19.63
2023-04-07T06:58:37.550Z,18.83
2023-04-07T07:01:06.331Z,16.63
2023-04-07T07:03:34.632Z,17.17
2023-04-07T07:06:02.984Z,18.00
2023-04-07T07:08:31.196Z,16.55
2023-04-07T07:10:59.000Z,16.48
2023-04-07T07:13:27.814Z,15.73
2023-04-07T07:15:57.029Z,16.92
2023-04-07T07:18:24.979Z,15.88
2023-04-07T07:20:52.683Z,16.42
2023-04-07T07:23:20.374Z,16.70
2023-04-07T07:25:48.060Z,14.85
2023-04-07T07:28:16.267Z,15.38
2023-04-07T07:30:44.055Z,17.13
2023-04-07T07:33:13.208Z,16.20
2023-04-07T07:35:41.507Z,16.83
2023-04-07T07:38:09.156Z,16.33
2023-04-07T07:40:37.048Z,15.30
2023-04-07T07:43:04.674Z,15.50
2023-04-07T07:45:32.316Z,15.07
2023-04-07T07:48:00.116Z,15.93
2023-04-07T07:50:29.236Z,15.00
2023-04-07T07:52:56.926Z,14.73
2023-04-07T07:55:24.778Z,15.65
2023-04-07T07:57:52.531Z,14.52
2023-04-07T08:00:20.776Z,15.18
2023-04-07T08:02:48.551Z,14.88
2023-04-07T08:05:16.567Z,14.93
2023-04-07T08:07:46.910Z,15.43
2023-04-07T08:10:14.959Z,16.17
2023-04-07T08:12:42.605Z,15.52
2023-04-07T08:15:10.813Z,16.17
2023-04-07T08:17:38.939Z,15.43
2023-04-07T08:20:08.201Z,15.40
2023-04-07T08:22:35.889Z,15.43
2023-04-07T08:25:05.506Z,14.98
2023-04-07T08:27:33.252Z,15.48
2023-04-07T08:30:01.726Z,16.00
2023-04-07T08:32:36.081Z,15.15
2023-04-07T08:35:03.942Z,14.90
2023-04-07T08:37:31.972Z,14.32
2023-04-07T08:39:59.674Z,14.77
2023-04-07T08:42:30.767Z,15.05
2023-04-07T08:45:01.201Z,13.52
2023-04-07T08:47:29.475Z,13.60
2023-04-07T08:49:59.046Z,12.98
2023-04-07T08:52:33.416Z,13.53
2023-04-07T08:55:02.971Z,13.60
2023-04-07T08:57:32.720Z,14.18
2023-04-07T09:00:05.563Z,14.05
2023-04-07T09:02:35.161Z,15.37
2023-04-07T09:05:05.193Z,14.73
2023-04-07T09:07:33.956Z,14.23
2023-04-07T09:10:02.077Z,14.07
2023-04-07T09:12:30.544Z,14.47
2023-04-07T09:14:59.692Z,15.15
2023-04-07T09:17:27.900Z,13.98
2023-04-07T09:19:57.708Z,14.55
2023-04-07T09:22:39.429Z,14.75
2023-04-07T09:25:17.753Z,13.25
2023-04-07T09:27:59.210Z,13.87
2023-04-07T09:30:28.847Z,14.30
2023-04-07T09:32:56.830Z,14.95
2023-04-07T09:35:24.867Z,15.10
2023-04-07T09:38:06.255Z,14.98
2023-04-07T09:40:34.463Z,14.93
2023-04-07T09:46:10.237Z,15.48
2023-04-07T09:48:38.503Z,15.20
2023-04-07T09:51:07.835Z,14.65
2023-04-07T09:53:48.710Z,13.48
2023-04-07T09:56:18.025Z,11.60
2023-04-07T09:58:47.248Z,12.20
2023-04-07T10:01:18.056Z,12.73
2023-04-07T10:03:47.859Z,11.15
2023-04-07T10:06:16.551Z,9.60
2023-04-07T10:08:44.592Z,9.38
2023-04-07T10:11:12.286Z,9.50
2023-04-07T10:13:41.437Z,10.38
2023-04-07T10:16:09.644Z,10.70
2023-04-07T10:18:40.405Z,10.50
2023-04-07T10:21:09.269Z,10.63
2023-04-07T10:23:50.423Z,9.65
2023-04-07T10:26:19.626Z,9.63
2023-04-07T10:28:50.802Z,9.50
2023-04-07T10:31:19.155Z,9.27
2023-04-07T10:33:52.855Z,8.98
2023-04-07T10:36:21.497Z,7.60
2023-04-07T10:39:20.464Z,7.27
2023-04-07T10:41:48.134Z,8.15
2023-04-07T10:44:48.204Z,8.20
2023-04-07T10:47:16.265Z,16.05
2023-04-07T10:50:19.526Z,6.50
2023-04-07T10:52:47.714Z,6.22
2023-04-07T10:55:31.659Z,5.60
2023-04-07T10:58:18.860Z,5.50
2023-04-07T11:01:20.779Z,5.97
2023-04-07T11:03:56.884Z,5.55
2023-04-07T11:06:27.153Z,6.00
2023-04-07T11:08:55.009Z,6.50
2023-04-07T11:11:38.429Z,5.65
2023-04-07T11:14:06.437Z,5.95
2023-04-07T11:16:46.970Z,6.03
2023-04-07T11:19:14.698Z,6.25
2023-04-07T11:21:43.807Z,6.22
2023-04-07T11:24:11.728Z,5.40
2023-04-07T11:26:40.593Z,5.53
2023-04-07T11:29:09.073Z,5.70
2023-04-07T11:31:37.199Z,5.47
2023-04-07T11:34:06.148Z,5.37
2023-04-07T11:36:35.665Z,5.82
2023-04-07T11:39:04.962Z,6.10
2023-04-07T11:41:33.871Z,6.05
2023-04-07T11:44:08.315Z,6.90
2023-04-07T11:46:36.765Z,7.00
2023-04-07T11:49:12.599Z,6.45
2023-04-07T11:51:40.573Z,6.65
2023-04-07T11:54:10.107Z,7.57
2023-04-07T11:56:48.267Z,8.10
2023-04-07T11:59:23.734Z,5.57
2023-04-07T12:01:53.441Z,6.07
2023-04-07T12:04:23.196Z,6.43
2023-04-07T12:06:51.306Z,7.65
2023-04-07T12:09:32.279Z,5.80
2023-04-07T12:12:00.183Z,6.03
2023-04-07T12:14:28.730Z,5.47
2023-04-07T12:16:58.073Z,6.57
2023-04-07T12:19:26.917Z,5.70
2023-04-07T12:21:54.668Z,5.57
2023-04-07T12:24:22.453Z,5.60
2023-04-07T12:26:51.552Z,5.32
2023-04-07T12:29:20.343Z,4.70
2023-04-07T12:31:50.867Z,5.50
2023-04-07T12:34:19.287Z,6.32
2023-04-07T12:36:46.983Z,5.53
2023-04-07T12:39:14.659Z,5.20
2023-04-07T12:41:42.431Z,5.60
2023-04-07T12:44:11.471Z,5.88
2023-04-07T12:46:39.219Z,5.35
2023-04-07T12:49:07.136Z,5.60
2023-04-07T12:51:34.910Z,5.47
2023-04-07T12:54:03.557Z,4.80
2023-04-07T12:56:31.811Z,4.95
2023-04-07T12:59:03.067Z,4.97
2023-04-07T13:01:33.111Z,5.77
2023-04-07T13:04:00.996Z,5.38
2023-04-07T13:06:28.852Z,5.15
2023-04-07T13:08:57.321Z,5.20
2023-04-07T13:11:25.747Z,5.25
2023-04-07T13:13:56.209Z,5.43
2023-04-07T13:16:25.252Z,8.00
2023-04-07T13:18:54.421Z,5.93
2023-04-07T13:23:53.712Z,4.60
2023-04-07T13:26:22.262Z,5.45
2023-04-07T13:28:50.123Z,5.13
2023-04-07T13:31:18.153Z,4.78
2023-04-07T13:33:46.595Z,5.18
2023-04-07T13:36:15.819Z,4.47
2023-04-07T13:38:43.616Z,4.45
2023-04-07T13:41:11.291Z,4.68
2023-04-07T13:43:38.933Z,4.65
2023-04-07T13:46:17.137Z,4.30
2023-04-07T13:48:49.522Z,5.13
2023-04-07T13:51:19.730Z,5.30
2023-04-07T13:53:47.910Z,5.13
2023-04-07T13:56:15.994Z,5.68
2023-04-07T13:58:43.656Z,5.25
2023-04-07T14:01:11.560Z,5.03
2023-04-07T14:03:39.318Z,5.68
2023-04-07T14:06:07.095Z,5.80
2023-04-07T14:08:36.229Z,5.80
2023-04-07T14:11:04.014Z,6.10
2023-04-07T14:13:32.097Z,6.20
2023-04-07T14:15:59.959Z,6.05
2023-04-07T14:18:28.012Z,6.72
2023-04-07T14:20:55.805Z,5.50
2023-04-07T14:23:36.043Z,5.63
2023-04-07T14:26:06.185Z,5.53
2023-04-07T14:28:33.858Z,5.23
2023-04-07T14:31:01.919Z,5.18
2023-04-07T14:33:29.663Z,4.30
2023-04-07T14:35:57.450Z,4.40
2023-04-07T14:38:26.004Z,5.20
2023-04-07T14:40:53.834Z,5.18
2023-04-07T14:43:23.073Z,8.77
2023-04-07T14:45:50.891Z,16.65
2023-04-07T14:48:18.582Z,18.98
2023-04-07T14:50:47.661Z,6.38
2023-04-07T14:53:16.217Z,6.18
2023-04-07T14:55:43.918Z,10.07
2023-04-07T14:58:11.566Z,7.10
2023-04-07T15:00:40.697Z,5.10
2023-04-07T15:03:08.696Z,5.22
2023-04-07T15:05:36.536Z,4.68
2023-04-07T15:08:04.348Z,4.63
2023-04-07T15:10:35.520Z,4.88
2023-04-07T15:13:03.588Z,4.68
2023-04-07T15:15:31.308Z,3.50
2023-04-07T15:18:00.424Z,3.25
2023-04-07T15:20:28.157Z,3.38
2023-04-07T15:22:55.872Z,2.92
2023-04-07T15:25:23.955Z,3.25
2023-04-07T15:27:51.652Z,2.90
2023-04-07T15:30:19.545Z,3.00
2023-04-07T15:32:58.000Z,2.97
2023-04-07T15:35:27.211Z,2.80
2023-04-07T15:37:54.938Z,3.58
2023-04-07T15:40:22.909Z,3.08
2023-04-07T15:42:50.656Z,3.35
2023-04-07T15:45:18.333Z,3.40
2023-04-07T15:47:46.113Z,3.45
2023-04-07T15:50:13.827Z,4.00
2023-04-07T15:52:42.919Z,3.67
2023-04-07T15:55:10.899Z,4.07
2023-04-07T15:57:38.551Z,3.92
2023-04-07T16:00:07.599Z,3.25
2023-04-07T16:04:24.518Z,3.93
2023-04-07T16:06:52.118Z,4.22
2023-04-07T16:09:19.865Z,4.15
2023-04-07T16:11:47.526Z,3.90
2023-04-07T16:14:15.192Z,5.05
2023-04-07T16:16:44.465Z,3.60
2023-04-07T16:19:14.561Z,3.58
2023-04-07T16:21:43.698Z,3.58
2023-04-07T16:24:11.480Z,6.17
2023-04-07T16:27:49.143Z,6.10
2023-04-07T16:30:18.274Z,5.20
2023-04-07T16:32:46.834Z,3.60
2023-04-07T16:35:15.968Z,4.22
2023-04-07T16:37:46.144Z,7.13
2023-04-07T16:40:14.294Z,6.00
2023-04-07T16:42:42.056Z,7.10
2023-04-07T16:45:11.948Z,6.15
2023-04-07T16:47:44.082Z,5.53
2023-04-07T16:50:11.936Z,6.03
2023-04-07T16:52:40.451Z,7.90
2023-04-07T16:55:08.832Z,11.63
2023-04-07T16:57:36.554Z,5.40
2023-04-07T17:00:05.817Z,5.22
2023-04-07T17:02:35.137Z,4.90
2023-04-07T17:05:03.068Z,5.22
2023-04-07T17:07:30.762Z,4.43
2023-04-07T17:09:58.582Z,4.45
2023-04-07T17:12:26.408Z,4.40
2023-04-07T17:14:54.113Z,5.10
2023-04-07T17:17:21.800Z,4.85
2023-04-07T17:19:50.877Z,4.90
2023-04-07T17:22:18.604Z,5.05
2023-04-07T17:24:46.296Z,5.60
2023-04-07T17:27:13.997Z,5.60
2023-04-07T17:29:41.686Z,6.00
2023-04-07T17:32:09.420Z,4.30
2023-04-07T17:36:58.704Z,8.23
2023-04-07T17:39:26.400Z,8.67
2023-04-07T17:41:54.108Z,11.20
2023-04-07T17:44:21.927Z,12.05
2023-04-07T17:46:49.742Z,10.07
2023-04-07T17:49:17.485Z,9.40
2023-04-07T17:51:45.840Z,9.37
2023-04-07T17:54:14.919Z,7.22
2023-04-07T17:56:42.593Z,8.00
2023-04-07T17:59:10.294Z,6.80
2023-04-07T18:01:38.098Z,7.50
2023-04-07T18:04:06.704Z,6.32
2023-04-07T18:06:35.027Z,6.47
2023-04-07T18:09:04.720Z,6.50
2023-04-07T18:11:33.810Z,6.88
2023-04-07T18:14:01.563Z,6.95
2023-04-07T18:16:29.447Z,7.32
2023-04-07T18:18:57.638Z,7.38
2023-04-07T18:21:25.298Z,8.32
2023-04-07T18:23:52.937Z,9.90
2023-04-07T18:26:20.602Z,10.93
2023-04-07T18:28:49.666Z,15.70
2023-04-07T18:31:17.422Z,15.50
2023-04-07T18:33:45.237Z,14.82
2023-04-07T18:36:14.293Z,13.53
2023-04-07T18:38:41.904Z,13.25
2023-04-07T18:41:09.586Z,11.60
2023-04-07T18:43:37.299Z,12.60
2023-04-07T18:46:07.138Z,13.35
2023-04-07T18:48:34.921Z,12.80
2023-04-07T18:51:02.649Z,12.75
2023-04-07T18:53:30.511Z,13.30
2023-04-07T18:55:58.152Z,12.90
2023-04-07T18:58:25.947Z,13.38
2023-04-07T19:00:54.540Z,13.10
2023-04-07T19:03:23.764Z,13.20
2023-04-07T19:05:52.706Z,14.52
2023-04-07T19:08:20.672Z,13.05
2023-04-07T19:10:49.319Z,14.77
2023-04-07T19:13:18.570Z,12.48
2023-04-07T19:15:46.749Z,11.90
2023-04-07T19:18:14.627Z,12.18
2023-04-07T19:20:43.724Z,12.95
2023-04-07T19:23:11.436Z,12.32
2023-04-07T19:25:40.142Z,12.20
2023-04-07T19:28:07.845Z,12.05
2023-04-07T19:30:35.529Z,11.20
2023-04-07T19:33:03.618Z,12.50
2023-04-07T19:35:32.118Z,10.85
2023-04-07T19:38:02.067Z,12.33
2023-04-07T19:40:31.369Z,11.48
2023-04-07T19:42:59.090Z,12.10
2023-04-07T19:45:27.033Z,10.70
2023-04-07T19:47:56.746Z,12.23
2023-04-07T19:50:25.020Z,11.48
2023-04-07T19:52:53.329Z,13.63
2023-04-07T19:55:22.691Z,12.52
2023-04-07T19:57:50.419Z,13.70
2023-04-07T20:00:18.614Z,17.93
2023-04-07T20:02:46.407Z,16.90
2023-04-07T20:05:14.115Z,17.83
2023-04-07T20:07:41.770Z,18.92
2023-04-07T20:10:10.003Z,17.48
2023-04-07T20:12:39.010Z,14.77
2023-04-07T20:15:08.234Z,16.00
2023-04-07T20:17:36.802Z,14.07
2023-04-07T20:20:04.530Z,15.23
2023-04-07T20:22:32.237Z,15.80
2023-04-07T20:24:59.879Z,13.27
2023-04-07T20:27:27.903Z,13.65
2023-04-07T20:29:57.218Z,14.33
2023-04-07T20:32:24.995Z,12.10
2023-04-07T20:34:52.689Z,11.63
2023-04-07T20:37:20.552Z,10.20
2023-04-07T20:39:48.494Z,10.57
2023-04-07T20:42:16.556Z,11.63
2023-04-07T20:44:44.302Z,11.65
2023-04-07T20:47:14.068Z,11.75
2023-04-07T20:49:43.561Z,11.88
2023-04-07T20:52:11.213Z,13.32
2023-04-07T20:54:40.271Z,12.13
2023-04-07T20:57:07.915Z,14.10
2023-04-07T20:59:36.132Z,14.20
2023-04-07T21:02:04.312Z,16.00
2023-04-07T21:04:33.812Z,18.42
2023-04-07T21:07:01.520Z,18.17
2023-04-07T21:09:29.230Z,18.42
2023-04-07T21:11:56.956Z,20.75
2023-04-07T21:14:24.667Z,20.70
2023-04-07T21:16:52.870Z,20.88
2023-04-07T21:19:20.760Z,21.05
2023-04-07T21:21:50.012Z,21.20
2023-04-07T21:24:17.688Z,20.45
2023-04-07T21:26:45.461Z,20.90
2023-04-07T21:29:13.221Z,19.92
2023-04-07T21:31:41.042Z,19.33
2023-04-07T21:34:09.001Z,15.98
2023-04-07T21:36:36.697Z,16.92
2023-04-07T21:39:06.587Z,15.25
2023-04-07T21:41:34.345Z,16.95
2023-04-07T21:44:02.697Z,16.93
2023-04-07T21:46:30.970Z,17.23
2023-04-07T21:48:58.692Z,18.27
2023-04-07T21:51:27.517Z,17.40
2023-04-07T21:53:55.417Z,17.35
2023-04-07T21:56:24.434Z,19.90
2023-04-07T21:58:52.176Z,18.85
2023-04-07T22:01:19.891Z,18.00
2023-04-07T22:03:47.728Z,19.98
2023-04-07T22:06:15.456Z,15.32
2023-04-07T22:08:48.909Z,14.90
2023-04-07T22:11:28.225Z,16.13
2023-04-07T22:13:56.049Z,14.30
2023-04-07T22:16:23.772Z,17.90
2023-04-07T22:18:51.888Z,16.02
2023-04-07T22:21:19.660Z,17.15
2023-04-07T22:23:47.318Z,17.40
2023-04-07T22:26:15.350Z,17.10
2023-04-07T22:28:44.476Z,15.05
2023-04-07T22:31:12.217Z,16.23
2023-04-07T22:33:39.901Z,16.40
2023-04-07T22:36:07.868Z,18.75
2023-04-07T22:38:35.636Z,18.20
2023-04-07T22:41:03.359Z,18.88
2023-04-07T22:43:31.036Z,19.83
2023-04-07T22:46:00.172Z,18.15
2023-04-07T22:48:28.297Z,17.50
2023-04-07T22:50:56.571Z,17.02
2023-04-07T22:53:24.271Z,17.73
2023-04-07T22:55:52.175Z,16.42
2023-04-07T22:58:19.818Z,16.35
2023-04-07T23:00:47.527Z,17.07
2023-04-07T23:03:16.811Z,17.17
2023-04-07T23:05:44.533Z,16.25
2023-04-07T23:08:12.188Z,16.38
2023-04-07T23:10:39.891Z,15.20
2023-04-07T23:13:07.555Z,16.77
2023-04-07T23:15:35.908Z,15.73
2023-04-07T23:18:03.713Z,15.20
2023-04-07T23:20:32.786Z,14.65
2023-04-07T23:23:00.655Z,14.75
2023-04-07T23:25:28.391Z,14.77
2023-04-07T23:27:56.150Z,14.70
2023-04-07T23:30:23.886Z,14.07
2023-04-07T23:32:51.812Z,14.20
2023-04-07T23:35:19.811Z,14.18
2023-04-07T23:37:48.989Z,14.70
2023-04-07T23:40:16.763Z,14.52
2023-04-07T23:42:44.432Z,14.55
2023-04-07T23:45:12.540Z,13.97
2023-04-07T23:47:40.353Z,14.47
2023-04-07T23:50:09.329Z,13.88
2023-04-07T23:52:36.940Z,13.30
2023-04-07T23:55:07.198Z,14.02
2023-04-07T23:57:34.909Z,13.73
